Aérodrome :
LOGIN :

S'inscrire | Disclaimer

   EN    FR    IT 

 










Légende :    VFR   VFR Marginal   IFR   IFR Intensif   IFR Très Intensif
Visi : 
Plafond : 
>= 8 km
>= 3000ft
5 à 8 km
1000 à 3000 ft
1500m à 5 km
500 à 1000 ft
800 à 1500m
200 à 500 ft
< 800m
< 200 ft
Symboles :   Orages  Brouillard  Fortes neiges  Fortes précipitations  Vent > 20 kt
SIGMETs :   Divers  Orages  Givrage  Turbulence  Onde Orograph.  Cendres Volcan.






- Altitude de l'aérodrome : 70 ft
- Code IATA : LEI


LEAM - Almeria

DERNIER METAR :
  • 181730Z 22017KT CAVOK 25/19 Q1009

METARs EXPIRÉS :
  • 181700Z 23018G28KT 200V260 CAVOK 28/14 Q1010
  • 181630Z 23016KT CAVOK 26/16 Q1010
  • 181600Z 23017KT CAVOK 25/18 Q1010
  • 181530Z 21012KT 170V230 CAVOK 26/19 Q1010
  • 181500Z 21014KT 180V240 CAVOK 25/19 Q1011
  • 181430Z 21015KT 170V250 CAVOK 25/18 Q1011
  • 181400Z 20011KT 170V230 CAVOK 25/19 Q1012
  • 181330Z 19011KT 150V230 CAVOK 24/18 Q1012
  • 181300Z 20012KT CAVOK 25/20 Q1012

TAF TAF LEAM
Valide du 18 à 18h jusqu'au 19 à 18h UTC


181700Z 1818/1918 23013KT CAVOK TX25/1818Z TN19/1905Z
PROB40
TEMPO 1818/1908 21015G25KT
BECMG 1909/1912 22023KT
PROB40
TEMPO 1910/1918 22025G35KT
PROB30
TEMPO 1912/1918 22028G43KT



MET'MAP, la Météo Aéronautique d'un coup d'oeil ! - Copyright ORBIFLY Décembre 2007 - Disclaimer

ORBIFLY MET'MAP TEAM :

Programmation & Développement : Alexandra Zaïnal
Sur une idée originale de : Baudouin d'Aumeries
Soutien technique & logistique : Manuel Goepfert
Assistance : Marc-Olivier Méhu




SOURCES & CREDITS :

   NOAA